createdAt,value
2023-01-29T00:01:39.976Z,100527.59
2023-01-29T00:04:10.341Z,100533.88
2023-01-29T00:06:44.075Z,100538.41
2023-01-29T00:09:14.984Z,100524.66
2023-01-29T00:11:45.494Z,100535.31
2023-01-29T00:14:16.150Z,100545.28
2023-01-29T00:16:46.395Z,100536.09
2023-01-29T00:19:17.752Z,100538.22
2023-01-29T00:21:50.492Z,100540.28
2023-01-29T00:24:20.916Z,100537.03
2023-01-29T00:26:51.113Z,100546.03
2023-01-29T00:29:22.170Z,100549.91
2023-01-29T00:31:53.169Z,100551.03
2023-01-29T00:34:23.731Z,100548.75
2023-01-29T00:37:04.983Z,100555.03
2023-01-29T00:39:47.388Z,100560.56
2023-01-29T00:42:30.213Z,100557.31
2023-01-29T00:45:00.550Z,100556.50
2023-01-29T00:47:33.968Z,100565.34
2023-01-29T00:50:06.998Z,100568.84
2023-01-29T00:52:41.135Z,100563.84
2023-01-29T00:55:13.548Z,100563.22
2023-01-29T00:57:43.712Z,100567.59
2023-01-29T01:00:18.010Z,100572.00
2023-01-29T01:03:01.716Z,100568.59
2023-01-29T01:05:32.319Z,100573.00
2023-01-29T01:08:25.354Z,100565.25
2023-01-29T01:10:59.977Z,100579.22
2023-01-29T01:13:30.186Z,100572.38
2023-01-29T01:16:00.524Z,100578.50
2023-01-29T01:18:33.002Z,100576.00
2023-01-29T01:21:04.379Z,100581.28
2023-01-29T01:23:37.812Z,100588.16
2023-01-29T01:26:12.514Z,100586.56
2023-01-29T01:28:42.745Z,100588.31
2023-01-29T01:31:14.776Z,100584.84
2023-01-29T01:33:45.123Z,100577.91
2023-01-29T01:36:16.191Z,100562.75
2023-01-29T01:38:49.564Z,100586.59
2023-01-29T01:41:23.152Z,100590.00
2023-01-29T01:43:55.699Z,100576.22
2023-01-29T01:46:26.331Z,100580.34
2023-01-29T01:49:01.956Z,100593.31
2023-01-29T01:51:35.595Z,100593.19
2023-01-29T01:54:11.004Z,100592.34
2023-01-29T01:56:45.802Z,100595.03
2023-01-29T01:59:19.452Z,100595.06
2023-01-29T02:01:54.312Z,100596.94
2023-01-29T02:04:40.871Z,100580.03
2023-01-29T02:07:27.823Z,100604.03
2023-01-29T02:10:10.695Z,100597.22
2023-01-29T02:12:45.012Z,100600.72
2023-01-29T02:15:16.631Z,100601.69
2023-01-29T02:17:48.718Z,100606.94
2023-01-29T02:20:26.054Z,100557.63
2023-01-29T02:23:17.011Z,100603.69
2023-01-29T02:26:07.686Z,100602.88
2023-01-29T02:28:45.512Z,100612.50
2023-01-29T02:31:23.827Z,100592.00
2023-01-29T02:34:04.072Z,100612.53
2023-01-29T02:36:41.486Z,100616.81
2023-01-29T02:39:20.560Z,100616.84
2023-01-29T02:42:01.783Z,100620.34
2023-01-29T02:44:41.684Z,100624.63
2023-01-29T02:47:18.258Z,100616.84
2023-01-29T02:49:54.252Z,100616.84
2023-01-29T02:52:29.490Z,100620.25
2023-01-29T02:55:05.048Z,100622.75
2023-01-29T02:57:39.064Z,100626.16
2023-01-29T03:03:36.716Z,100634.44
2023-01-29T03:06:18.354Z,100633.53
2023-01-29T03:08:52.645Z,100640.25
2023-01-29T03:11:24.126Z,100644.31
2023-01-29T03:14:01.017Z,100644.91
2023-01-29T03:16:37.470Z,100648.25
2023-01-29T03:19:16.494Z,100647.19
2023-01-29T03:21:59.148Z,100646.28
2023-01-29T03:24:49.481Z,100646.97
2023-01-29T03:27:36.522Z,100642.44
2023-01-29T03:30:23.137Z,100642.22
2023-01-29T03:32:56.514Z,100654.22
2023-01-29T03:35:36.791Z,100655.09
2023-01-29T03:38:10.124Z,100659.38
2023-01-29T03:40:49.513Z,100654.13
2023-01-29T03:43:29.544Z,100652.94
2023-01-29T03:46:08.561Z,100651.13
2023-01-29T03:48:42.518Z,100645.88
2023-01-29T03:51:31.268Z,100660.75
2023-01-29T03:54:10.478Z,100655.50
2023-01-29T03:56:52.774Z,100645.88
2023-01-29T03:59:36.722Z,100642.22
2023-01-29T04:02:10.452Z,100644.72
2023-01-29T04:04:42.015Z,100636.88
2023-01-29T04:07:19.349Z,100643.91
2023-01-29T04:09:53.678Z,100647.41
2023-01-29T04:12:29.410Z,100648.41
2023-01-29T04:15:03.151Z,100649.97
2023-01-29T04:17:40.202Z,100644.81
2023-01-29T04:20:12.680Z,100642.91
2023-01-29T04:22:49.095Z,100645.97
2023-01-29T04:25:26.781Z,100647.69
2023-01-29T04:28:08.907Z,100647.50
2023-01-29T04:30:47.016Z,100652.59
2023-01-29T04:33:30.444Z,100650.81
2023-01-29T04:36:19.210Z,100622.63
2023-01-29T04:39:04.993Z,100646.19
2023-01-29T04:41:41.081Z,100636.56
2023-01-29T04:44:19.016Z,100645.28
2023-01-29T04:46:55.847Z,100650.38
2023-01-29T04:49:35.653Z,100653.03
2023-01-29T04:52:15.040Z,100646.88
2023-01-29T04:54:57.500Z,100644.16
2023-01-29T04:57:32.933Z,100647.88
2023-01-29T05:00:12.306Z,100645.28
2023-01-29T05:02:47.813Z,100650.47
2023-01-29T05:05:21.828Z,100637.38
2023-01-29T05:07:52.148Z,100629.34
2023-01-29T05:10:27.248Z,100621.66
2023-01-29T05:13:11.863Z,100616.41
2023-01-29T05:15:45.168Z,100623.25
2023-01-29T05:18:15.840Z,100616.41
2023-01-29T05:20:50.255Z,100613.00
2023-01-29T05:23:21.477Z,100602.72
2023-01-29T05:25:57.870Z,100605.09
2023-01-29T05:28:25.616Z,100605.81
2023-01-29T05:30:58.021Z,100595.69
2023-01-29T05:33:30.457Z,100618.84
2023-01-29T05:36:02.750Z,100618.84
2023-01-29T05:38:33.127Z,100618.84
2023-01-29T05:41:06.199Z,100615.22
2023-01-29T05:43:36.481Z,100622.13
2023-01-29T05:46:07.718Z,100621.28
2023-01-29T05:48:38.596Z,100622.81
2023-01-29T05:51:09.100Z,100630.59
2023-01-29T05:53:39.765Z,100627.22
2023-01-29T05:56:12.858Z,100629.09
2023-01-29T05:58:44.326Z,100641.31
2023-01-29T06:01:17.044Z,100645.66
2023-01-29T06:03:47.736Z,100646.47
2023-01-29T06:06:18.568Z,100649.97
2023-01-29T06:08:48.949Z,100654.13
2023-01-29T06:11:22.078Z,100643.69
2023-01-29T06:13:53.173Z,100655.75
2023-01-29T06:16:23.554Z,100652.22
2023-01-29T06:18:53.761Z,100660.91
2023-01-29T06:21:24.049Z,100679.16
2023-01-29T06:23:55.632Z,100686.06
2023-01-29T06:26:28.457Z,100680.81
2023-01-29T06:29:01.579Z,100694.84
2023-01-29T06:31:38.749Z,100700.69
2023-01-29T06:34:10.493Z,100690.19
2023-01-29T06:36:41.923Z,100693.53
2023-01-29T06:39:17.453Z,100695.06
2023-01-29T06:41:50.195Z,100695.78
2023-01-29T06:44:20.555Z,100694.72
2023-01-29T06:46:50.674Z,100695.59
2023-01-29T06:49:20.941Z,100697.19
2023-01-29T06:51:51.207Z,100697.13
2023-01-29T06:54:21.558Z,100697.97
2023-01-29T06:56:54.759Z,100694.56
2023-01-29T06:59:25.143Z,100687.03
2023-01-29T07:01:55.400Z,100686.81
2023-01-29T07:04:25.745Z,100672.03
2023-01-29T07:06:56.168Z,100675.44
2023-01-29T07:09:27.303Z,100671.94
2023-01-29T07:12:00.218Z,100673.69
2023-01-29T07:14:30.541Z,100678.94
2023-01-29T07:17:00.846Z,100673.78
2023-01-29T07:19:31.053Z,100678.16
2023-01-29T07:22:04.637Z,100672.72
2023-01-29T07:24:35.326Z,100672.72
2023-01-29T07:27:08.234Z,100676.19
2023-01-29T07:29:38.647Z,100668.25
2023-01-29T07:32:09.099Z,100661.00
2023-01-29T07:34:41.410Z,100657.53
2023-01-29T07:37:11.817Z,100654.03
2023-01-29T07:39:42.637Z,100658.97
2023-01-29T07:42:15.671Z,100668.47
2023-01-29T07:44:46.363Z,100665.81
2023-01-29T07:47:19.202Z,100667.41
2023-01-29T07:49:49.755Z,100673.47
2023-01-29T07:52:22.164Z,100673.41
2023-01-29T07:54:52.657Z,100674.16
2023-01-29T07:57:26.213Z,100667.91
2023-01-29T07:59:56.633Z,100671.31
2023-01-29T08:02:30.031Z,100672.84
2023-01-29T08:05:00.403Z,100674.59
2023-01-29T08:07:30.621Z,100680.66
2023-01-29T08:10:02.472Z,100678.72
2023-01-29T08:12:37.749Z,100682.88
2023-01-29T08:15:08.837Z,100692.19
2023-01-29T08:17:56.146Z,100685.22
2023-01-29T08:20:28.471Z,100674.94
2023-01-29T08:23:03.457Z,100673.88
2023-01-29T08:25:33.983Z,100680.16
2023-01-29T08:28:07.382Z,100686.81
2023-01-29T08:30:38.661Z,100699.66
2023-01-29T08:33:09.661Z,100695.06
2023-01-29T08:35:41.484Z,100711.47
2023-01-29T08:38:12.818Z,100711.41
2023-01-29T08:40:43.141Z,100714.66
2023-01-29T08:43:16.825Z,100706.31
2023-01-29T08:45:47.458Z,100723.16
2023-01-29T08:48:17.621Z,100717.03
2023-01-29T08:50:48.369Z,100716.00
2023-01-29T08:53:19.961Z,100717.59
2023-01-29T08:55:50.701Z,100727.75
2023-01-29T08:58:23.556Z,100714.34
2023-01-29T09:00:53.815Z,100717.69
2023-01-29T09:03:24.151Z,100710.72
2023-01-29T09:05:54.403Z,100717.63
2023-01-29T09:08:27.653Z,100715.69
2023-01-29T09:10:58.088Z,100717.22
2023-01-29T09:13:30.915Z,100710.75
2023-01-29T09:16:03.047Z,100713.31
2023-01-29T09:18:34.078Z,100711.31
2023-01-29T09:21:05.164Z,100713.34
2023-01-29T09:23:35.735Z,100715.31
2023-01-29T09:26:06.257Z,100726.41
2023-01-29T09:28:40.009Z,100722.53
2023-01-29T09:31:10.632Z,100731.94
2023-01-29T09:33:40.936Z,100728.81
2023-01-29T09:36:11.960Z,100737.31
2023-01-29T09:38:42.646Z,100739.13
2023-01-29T09:41:30.172Z,100739.72
2023-01-29T09:44:05.949Z,100739.84
2023-01-29T09:46:41.599Z,100746.59
2023-01-29T09:49:18.936Z,100736.50
2023-01-29T09:51:52.856Z,100735.09
2023-01-29T09:54:26.173Z,100728.94
2023-01-29T09:56:59.385Z,100735.47
2023-01-29T09:59:35.081Z,100723.78
2023-01-29T10:02:13.490Z,100729.50
2023-01-29T10:05:11.008Z,100738.78
2023-01-29T10:07:59.377Z,100733.50
2023-01-29T10:10:40.137Z,100735.19
2023-01-29T10:13:22.159Z,100736.09
2023-01-29T10:16:18.806Z,100725.00
2023-01-29T10:19:05.674Z,100733.50
2023-01-29T10:21:53.956Z,100727.81
2023-01-29T10:24:35.075Z,100727.66
2023-01-29T10:27:12.471Z,100732.84
2023-01-29T10:29:45.661Z,100724.66
2023-01-29T10:32:22.507Z,100719.50
2023-01-29T10:34:57.878Z,100728.38
2023-01-29T10:37:39.759Z,100724.34
2023-01-29T10:40:23.100Z,100729.44
2023-01-29T10:43:01.957Z,100721.41
2023-01-29T10:45:40.063Z,100714.41
2023-01-29T10:48:38.386Z,100699.44
2023-01-29T10:51:20.989Z,100680.16
2023-01-29T10:54:03.730Z,100691.13
2023-01-29T10:56:50.325Z,100677.53
2023-01-29T10:59:38.336Z,100685.19
2023-01-29T11:02:18.213Z,100682.25
2023-01-29T11:04:51.570Z,100688.91
2023-01-29T11:07:24.894Z,100672.59
2023-01-29T11:10:03.346Z,100670.47
2023-01-29T11:12:34.701Z,100662.56
2023-01-29T11:15:10.149Z,100658.19
2023-01-29T11:17:41.427Z,100661.44
2023-01-29T11:20:32.822Z,100651.47
2023-01-29T11:23:03.119Z,100646.09
2023-01-29T11:25:34.951Z,100642.31
2023-01-29T11:28:08.111Z,100644.75
2023-01-29T11:30:42.023Z,100641.28
2023-01-29T11:33:22.223Z,100639.44
2023-01-29T11:35:57.683Z,100630.81
2023-01-29T11:38:30.173Z,100629.91
2023-01-29T11:41:09.637Z,100617.28
2023-01-29T11:43:39.909Z,100619.44
2023-01-29T11:46:16.218Z,100617.53
2023-01-29T11:48:50.476Z,100607.16
2023-01-29T11:51:30.135Z,100605.31
2023-01-29T11:54:03.991Z,100596.75
2023-01-29T11:56:37.040Z,100599.19
2023-01-29T11:59:08.623Z,100604.34
2023-01-29T12:01:41.372Z,100591.13
2023-01-29T12:04:21.824Z,100595.38
2023-01-29T12:06:56.885Z,100589.75
2023-01-29T12:09:31.076Z,100593.28
2023-01-29T12:12:20.721Z,100590.75
2023-01-29T12:15:06.445Z,100594.66
2023-01-29T12:17:41.291Z,100599.69
2023-01-29T12:20:17.129Z,100601.59
2023-01-29T12:22:59.408Z,100598.25
2023-01-29T12:25:43.543Z,100603.19
2023-01-29T12:28:25.939Z,100596.72
2023-01-29T12:31:12.080Z,100601.03
2023-01-29T12:33:50.906Z,100593.78
2023-01-29T12:36:33.723Z,100596.06
2023-01-29T12:39:07.447Z,100594.94
2023-01-29T12:41:46.124Z,100588.78
2023-01-29T12:44:21.640Z,100586.44
2023-01-29T12:46:57.466Z,100587.50
2023-01-29T12:49:32.923Z,100588.88
2023-01-29T12:52:10.199Z,100583.00
2023-01-29T12:54:47.339Z,100577.41
2023-01-29T12:57:26.273Z,100573.94
2023-01-29T13:00:04.897Z,100574.66
2023-01-29T13:02:39.527Z,100564.44
2023-01-29T13:05:23.150Z,100552.13
2023-01-29T13:08:00.716Z,100565.63
2023-01-29T13:10:44.168Z,100561.25
2023-01-29T13:13:25.324Z,100558.69
2023-01-29T13:15:56.558Z,100547.75
2023-01-29T13:18:43.294Z,100548.59
2023-01-29T13:21:20.322Z,100547.00
2023-01-29T13:23:53.920Z,100543.81
2023-01-29T13:26:28.211Z,100540.75
2023-01-29T13:28:58.873Z,100538.00
2023-01-29T13:31:37.266Z,100541.13
2023-01-29T13:34:17.109Z,100537.59
2023-01-29T13:36:49.805Z,100532.28
2023-01-29T13:39:26.389Z,100524.31
2023-01-29T13:42:01.507Z,100532.13
2023-01-29T13:44:37.730Z,100530.81
2023-01-29T13:47:10.543Z,100537.47
2023-01-29T13:49:45.091Z,100534.84
2023-01-29T13:52:24.311Z,100526.09
2023-01-29T13:55:01.026Z,100528.47
2023-01-29T13:57:56.816Z,100529.47
2023-01-29T14:01:01.831Z,100525.25
2023-01-29T14:04:05.605Z,100519.84
2023-01-29T14:06:51.358Z,100495.69
2023-01-29T14:09:57.786Z,100537.94
2023-01-29T14:12:42.747Z,100531.66
2023-01-29T14:15:27.959Z,100522.19
2023-01-29T14:18:02.669Z,100515.06
2023-01-29T14:20:46.077Z,100513.06
2023-01-29T14:23:40.827Z,100516.66
2023-01-29T14:26:25.420Z,100513.38
2023-01-29T14:29:00.943Z,100522.19
2023-01-29T14:31:42.260Z,100515.97
2023-01-29T14:34:21.525Z,100515.06
2023-01-29T14:36:55.689Z,100530.16
2023-01-29T14:39:31.090Z,100524.00
2023-01-29T14:42:02.847Z,100519.84
2023-01-29T14:45:05.427Z,100517.28
2023-01-29T14:48:03.593Z,100515.88
2023-01-29T14:50:48.596Z,100516.00
2023-01-29T14:53:25.950Z,100519.31
2023-01-29T14:56:01.723Z,100479.22
2023-01-29T14:58:40.293Z,100509.19
2023-01-29T15:01:25.257Z,100518.78
2023-01-29T15:04:05.702Z,100503.38
2023-01-29T15:06:45.049Z,100499.97
2023-01-29T15:09:22.065Z,100502.59
2023-01-29T15:12:03.795Z,100502.19
2023-01-29T15:14:40.293Z,100510.75
2023-01-29T15:17:27.834Z,100506.00
2023-01-29T15:20:00.969Z,100504.56
2023-01-29T15:22:33.121Z,100509.84
2023-01-29T15:25:10.176Z,100508.41
2023-01-29T15:27:44.883Z,100514.09
2023-01-29T15:30:21.062Z,100509.97
2023-01-29T15:32:52.559Z,100506.63
2023-01-29T15:35:31.926Z,100515.97
2023-01-29T15:38:04.405Z,100517.72
2023-01-29T15:40:35.964Z,100514.34
2023-01-29T15:43:23.869Z,100516.94
2023-01-29T15:45:56.140Z,100522.22
2023-01-29T15:48:33.497Z,100518.78
2023-01-29T15:51:10.429Z,100519.69
2023-01-29T15:53:46.807Z,100527.38
2023-01-29T15:56:21.138Z,100529.28
2023-01-29T15:58:54.428Z,100541.59
2023-01-29T16:01:24.980Z,100536.38
2023-01-29T16:03:57.794Z,100532.97
2023-01-29T16:06:36.992Z,100528.53
2023-01-29T16:09:11.623Z,100527.84
2023-01-29T16:11:43.815Z,100526.06
2023-01-29T16:14:17.859Z,100525.25
2023-01-29T16:16:48.812Z,100534.66
2023-01-29T16:19:27.867Z,100543.22
2023-01-29T16:22:07.311Z,100543.22
2023-01-29T16:24:40.343Z,100548.38
2023-01-29T16:27:16.112Z,100552.56
2023-01-29T16:29:46.584Z,100556.19
2023-01-29T16:32:18.444Z,100560.56
2023-01-29T16:34:52.418Z,100555.34
2023-01-29T16:37:30.666Z,100565.72
2023-01-29T16:40:01.880Z,100572.69
2023-01-29T16:42:34.319Z,100571.00
2023-01-29T16:45:06.459Z,100571.97
2023-01-29T16:47:38.983Z,100577.47
2023-01-29T16:50:35.923Z,100578.22
2023-01-29T16:53:21.571Z,100582.69
2023-01-29T16:55:55.535Z,100582.31
2023-01-29T16:58:28.533Z,100576.25
2023-01-29T17:01:04.049Z,100565.03
2023-01-29T17:03:37.245Z,100584.13
2023-01-29T17:06:12.795Z,100554.22
2023-01-29T17:08:47.657Z,100568.56
2023-01-29T17:11:29.662Z,100575.41
2023-01-29T17:14:01.106Z,100561.69
2023-01-29T17:16:34.995Z,100562.38
2023-01-29T17:19:14.263Z,100561.94
2023-01-29T17:21:44.850Z,100562.25
2023-01-29T17:24:20.883Z,100557.41
2023-01-29T17:26:52.010Z,100548.16
2023-01-29T17:29:27.183Z,100539.25
2023-01-29T17:32:00.385Z,100537.66
2023-01-29T17:34:31.516Z,100530.63
2023-01-29T17:37:02.089Z,100500.69
2023-01-29T17:39:35.132Z,100529.38
2023-01-29T17:42:06.065Z,100516.59
2023-01-29T17:44:36.753Z,100517.50
2023-01-29T17:47:09.458Z,100515.75
2023-01-29T17:49:41.074Z,100512.22
2023-01-29T17:52:12.125Z,100514.97
2023-01-29T17:54:45.226Z,100520.25
2023-01-29T17:57:17.996Z,100510.69
2023-01-29T17:59:48.665Z,100504.63
2023-01-29T18:02:28.868Z,100506.84
2023-01-29T18:04:59.781Z,100504.00
2023-01-29T18:07:30.048Z,100502.13
2023-01-29T18:10:03.029Z,100500.50
2023-01-29T18:12:33.511Z,100504.97
2023-01-29T18:15:07.175Z,100499.75
2023-01-29T18:17:37.924Z,100505.03
2023-01-29T18:20:20.841Z,100502.56
2023-01-29T18:22:51.718Z,100492.13
2023-01-29T18:25:25.775Z,100492.84
2023-01-29T18:27:56.708Z,100494.63
2023-01-29T18:30:27.319Z,100493.03
2023-01-29T18:32:58.616Z,100489.59
2023-01-29T18:35:30.618Z,100488.56
2023-01-29T18:38:04.492Z,100479.88
2023-01-29T18:40:37.498Z,100474.59
2023-01-29T18:43:08.131Z,100481.75
2023-01-29T18:45:38.869Z,100488.63
2023-01-29T18:48:09.774Z,100491.34
2023-01-29T18:50:40.313Z,100498.31
2023-01-29T18:53:10.774Z,100501.72
2023-01-29T18:55:43.936Z,100502.50
2023-01-29T18:58:25.247Z,100505.41
2023-01-29T19:00:59.385Z,100509.06
2023-01-29T19:03:30.479Z,100515.03
2023-01-29T19:06:04.653Z,100515.19
2023-01-29T19:08:35.944Z,100515.41
2023-01-29T19:11:09.779Z,100508.41
2023-01-29T19:13:42.737Z,100511.00
2023-01-29T19:16:14.867Z,100501.47
2023-01-29T19:18:45.428Z,100505.91
2023-01-29T19:21:18.083Z,100504.22
2023-01-29T19:23:49.004Z,100505.78
2023-01-29T19:26:22.134Z,100506.81
2023-01-29T19:28:52.761Z,100501.72
2023-01-29T19:31:23.303Z,100504.16
2023-01-29T19:33:53.847Z,100497.41
2023-01-29T19:36:24.511Z,100494.81
2023-01-29T19:38:55.067Z,100474.94
2023-01-29T19:41:28.458Z,100471.31
2023-01-29T19:43:58.929Z,100468.09
2023-01-29T19:46:30.310Z,100469.00
2023-01-29T19:49:00.667Z,100478.16
2023-01-29T19:51:34.013Z,100473.91
2023-01-29T19:54:04.619Z,100478.38
2023-01-29T19:56:38.971Z,100471.47
2023-01-29T19:59:10.708Z,100471.31
2023-01-29T20:01:41.885Z,100464.91
2023-01-29T20:04:12.649Z,100463.25
2023-01-29T20:06:43.227Z,100471.94
2023-01-29T20:09:14.021Z,100471.13
2023-01-29T20:11:46.948Z,100468.53
2023-01-29T20:14:17.547Z,100472.03
2023-01-29T20:16:47.828Z,100482.41
2023-01-29T20:19:20.249Z,100479.81
2023-01-29T20:21:51.888Z,100485.97
2023-01-29T20:24:23.622Z,100482.41
2023-01-29T20:26:56.982Z,100484.22
2023-01-29T20:29:29.641Z,100488.53
2023-01-29T20:32:00.542Z,100482.47
2023-01-29T20:34:33.354Z,100469.84
2023-01-29T20:37:04.191Z,100484.22
2023-01-29T20:39:34.963Z,100487.63
2023-01-29T20:42:08.391Z,100488.69
2023-01-29T20:44:38.946Z,100492.25
2023-01-29T20:47:09.456Z,100490.56
2023-01-29T20:49:40.176Z,100495.09
2023-01-29T20:52:11.461Z,100503.94
2023-01-29T20:54:41.741Z,100508.19
2023-01-29T20:57:14.958Z,100507.00
2023-01-29T20:59:48.604Z,100504.34
2023-01-29T21:02:20.282Z,100506.16
2023-01-29T21:04:50.566Z,100507.47
2023-01-29T21:07:21.900Z,100512.66
2023-01-29T21:09:55.286Z,100514.25
2023-01-29T21:12:28.442Z,100504.22
2023-01-29T21:15:01.988Z,100504.22
2023-01-29T21:17:32.474Z,100505.91
2023-01-29T21:20:05.482Z,100497.56
2023-01-29T21:22:42.532Z,100501.97
2023-01-29T21:25:14.306Z,100494.13
2023-01-29T21:27:47.494Z,100499.22
2023-01-29T21:30:19.005Z,100494.28
2023-01-29T21:32:51.087Z,100484.78
2023-01-29T21:35:21.689Z,100484.56
2023-01-29T21:37:52.468Z,100485.97
2023-01-29T21:40:25.388Z,100494.16
2023-01-29T21:43:10.588Z,100495.75
2023-01-29T21:45:41.450Z,100485.50
2023-01-29T21:48:12.634Z,100481.78
2023-01-29T21:50:43.329Z,100486.47
2023-01-29T21:53:13.743Z,100486.53
2023-01-29T21:55:44.541Z,100480.53
2023-01-29T21:58:20.010Z,100476.91
2023-01-29T22:00:51.059Z,100471.06
2023-01-29T22:03:21.502Z,100475.31
2023-01-29T22:05:54.034Z,100474.06
2023-01-29T22:08:24.291Z,100465.69
2023-01-29T22:10:54.743Z,100457.78
2023-01-29T22:13:27.904Z,100457.03
2023-01-29T22:15:58.587Z,100456.78
2023-01-29T22:18:28.980Z,100457.63
2023-01-29T22:21:02.785Z,100447.59
2023-01-29T22:23:33.813Z,100447.38
2023-01-29T22:26:09.175Z,100457.69
2023-01-29T22:28:42.535Z,100455.97
2023-01-29T22:31:13.273Z,100448.16
2023-01-29T22:33:43.463Z,100449.94
2023-01-29T22:36:13.730Z,100454.22
2023-01-29T22:38:45.446Z,100450.97
2023-01-29T22:41:16.413Z,100453.75
2023-01-29T22:43:49.349Z,100444.25
2023-01-29T22:46:19.487Z,100444.84
2023-01-29T22:48:50.582Z,100438.69
2023-01-29T22:51:20.745Z,100436.63
2023-01-29T22:53:53.571Z,100433.97
2023-01-29T22:56:26.412Z,100433.53
2023-01-29T22:59:01.108Z,100430.16
2023-01-29T23:01:33.463Z,100428.09
2023-01-29T23:04:03.817Z,100428.19
2023-01-29T23:06:34.111Z,100430.09
2023-01-29T23:09:04.443Z,100426.94
2023-01-29T23:11:34.723Z,100426.41
2023-01-29T23:14:07.667Z,100422.78
2023-01-29T23:16:37.843Z,100420.97
2023-01-29T23:19:08.361Z,100408.97
2023-01-29T23:21:39.666Z,100407.19
2023-01-29T23:24:11.362Z,100412.34
2023-01-29T23:26:54.064Z,100407.47
2023-01-29T23:29:26.993Z,100417.69
2023-01-29T23:31:57.212Z,100409.94
2023-01-29T23:34:27.446Z,100412.69
2023-01-29T23:36:57.739Z,100409.22
2023-01-29T23:39:27.933Z,100413.38
2023-01-29T23:41:58.445Z,100396.75
2023-01-29T23:44:31.474Z,100395.84
2023-01-29T23:47:02.226Z,100397.66
2023-01-29T23:49:32.510Z,100396.94
2023-01-29T23:52:03.317Z,100392.53
2023-01-29T23:54:33.670Z,100383.34
2023-01-29T23:57:03.878Z,100385.91
2023-01-29T23:59:36.782Z,100378.97
